Time;durP1;ratioP1;P1;durP2;ratioP2;P2;SDS_P1;SDS_P2;PMS_P1;PMS_P2;Temp;Humidity;BMP_temperature;BMP_pressure;BME280_temperature;BME280_humidity;BME280_pressure;Samples;Min_cycle;Max_cycle;Signal;HPM_P1;HPM_P2
2021/10/14 00:01:14;;;;;;;1.60;1.10;;;;;;;;;;5116385;28;20094;-57
2021/10/14 00:03:41;;;;;;;1.60;1.00;;;;;;;;;;5116617;28;20019;-58
2021/10/14 00:06:08;;;;;;;1.42;0.98;;;;;;;;;;5116061;28;20111;-57
2021/10/14 00:08:33;;;;;;;2.10;1.30;;;;;;;;;;5115776;28;20023;-58
2021/10/14 00:10:59;;;;;;;2.60;0.90;;;;;;;;;;5116192;28;20341;-58
2021/10/14 00:13:25;;;;;;;2.25;0.95;;;;;;;;;;5115395;28;20023;-58
2021/10/14 00:15:52;;;;;;;1.75;1.15;;;;;;;;;;5115776;28;20020;-58
2021/10/14 00:18:18;;;;;;;2.00;0.98;;;;;;;;;;5115361;28;20015;-57
2021/10/14 00:20:44;;;;;;;2.20;1.27;;;;;;;;;;5129556;27;20026;-58
2021/10/14 00:23:10;;;;;;;1.13;0.75;;;;;;;;;;5136161;27;20007;-57
2021/10/14 00:25:36;;;;;;;2.25;1.20;;;;;;;;;;5135988;27;20486;-58
2021/10/14 00:28:03;;;;;;;1.95;1.08;;;;;;;;;;5136894;27;20149;-58
2021/10/14 00:30:29;;;;;;;1.20;0.90;;;;;;;;;;5135292;27;20023;-58
2021/10/14 00:32:55;;;;;;;1.23;0.80;;;;;;;;;;5136153;27;20363;-58
2021/10/14 00:35:21;;;;;;;1.10;0.98;;;;;;;;;;5134818;27;20051;-58
2021/10/14 00:37:47;;;;;;;1.60;1.15;;;;;;;;;;5136537;27;20084;-58
2021/10/14 00:40:13;;;;;;;1.17;0.85;;;;;;;;;;5135507;27;20027;-58
2021/10/14 00:42:43;;;;;;;1.00;0.80;;;;;;;;;;5136230;27;20011;-58
2021/10/14 00:45:09;;;;;;;1.30;0.90;;;;;;;;;;5135816;27;20049;-57
2021/10/14 00:47:35;;;;;;;1.73;1.02;;;;;;;;;;5135705;27;20023;-58
2021/10/14 00:50:01;;;;;;;1.63;0.82;;;;;;;;;;5135728;27;20505;-58
2021/10/14 00:52:27;;;;;;;1.42;0.98;;;;;;;;;;5135293;27;20447;-58
2021/10/14 00:54:55;;;;;;;1.80;1.13;;;;;;;;;;5135834;27;20055;-58
2021/10/14 00:57:21;;;;;;;1.20;0.80;;;;;;;;;;5135172;27;20015;-58
2021/10/14 00:59:48;;;;;;;2.53;0.70;;;;;;;;;;5136006;27;20015;-58
2021/10/14 01:02:14;;;;;;;1.15;0.85;;;;;;;;;;5134961;27;20023;-57
2021/10/14 01:04:40;;;;;;;1.17;0.77;;;;;;;;;;5135618;27;20102;-57
2021/10/14 01:07:06;;;;;;;1.98;1.02;;;;;;;;;;5135193;27;20444;-58
2021/10/14 01:09:32;;;;;;;1.35;1.08;;;;;;;;;;5134817;27;20023;-57
2021/10/14 01:12:00;;;;;;;0.85;0.77;;;;;;;;;;5135933;27;20026;-58
2021/10/14 01:14:26;;;;;;;1.52;0.80;;;;;;;;;;5134718;27;20107;-57
2021/10/14 01:16:52;;;;;;;1.40;0.90;;;;;;;;;;5135411;27;20047;-58
2021/10/14 01:19:18;;;;;;;3.13;1.02;;;;;;;;;;5132929;27;20019;-58
2021/10/14 01:21:44;;;;;;;1.77;0.90;;;;;;;;;;5096889;28;20015;-58
2021/10/14 01:24:11;;;;;;;1.63;0.95;;;;;;;;;;5114668;28;20054;-57
2021/10/14 01:26:39;;;;;;;1.98;1.08;;;;;;;;;;5114193;28;20020;-58
2021/10/14 01:29:05;;;;;;;1.65;0.85;;;;;;;;;;5114722;28;20020;-58
2021/10/14 01:31:31;;;;;;;0.80;0.80;;;;;;;;;;5114210;28;20028;-58
2021/10/14 01:33:57;;;;;;;1.67;1.05;;;;;;;;;;5114850;28;20012;-58
2021/10/14 01:36:23;;;;;;;1.63;1.08;;;;;;;;;;5113357;28;20503;-58
2021/10/14 01:38:50;;;;;;;1.40;0.90;;;;;;;;;;5114828;28;20031;-58
2021/10/14 01:41:16;;;;;;;2.20;1.02;;;;;;;;;;5113285;28;20099;-57
2021/10/14 01:43:42;;;;;;;1.92;0.77;;;;;;;;;;5114213;28;20466;-58
2021/10/14 01:46:08;;;;;;;2.55;1.10;;;;;;;;;;5114333;28;20080;-58
2021/10/14 01:48:35;;;;;;;2.65;1.00;;;;;;;;;;5113142;28;20098;-57
2021/10/14 01:51:01;;;;;;;0.90;0.80;;;;;;;;;;5114214;28;20124;-58
2021/10/14 01:53:27;;;;;;;0.90;0.70;;;;;;;;;;5113531;28;20008;-58
2021/10/14 01:55:53;;;;;;;1.27;1.02;;;;;;;;;;5114098;28;20031;-58
2021/10/14 01:58:20;;;;;;;1.38;0.98;;;;;;;;;;5113060;28;20035;-57
2021/10/14 02:00:50;;;;;;;1.08;0.70;;;;;;;;;;5114044;28;20090;-58
2021/10/14 02:03:17;;;;;;;1.30;0.98;;;;;;;;;;5113045;28;20019;-57
2021/10/14 02:05:43;;;;;;;1.58;0.80;;;;;;;;;;5114063;28;20576;-58
2021/10/14 02:08:09;;;;;;;1.20;0.90;;;;;;;;;;5113987;28;20035;-58
2021/10/14 02:10:35;;;;;;;2.30;1.10;;;;;;;;;;5113050;28;20020;-58
2021/10/14 02:13:01;;;;;;;2.53;1.08;;;;;;;;;;5113770;28;20108;-58
2021/10/14 02:15:27;;;;;;;0.98;0.88;;;;;;;;;;5113050;28;20077;-57
2021/10/14 02:17:53;;;;;;;1.27;0.88;;;;;;;;;;5113670;28;20107;-58
2021/10/14 02:20:19;;;;;;;1.45;0.98;;;;;;;;;;5122453;27;20011;-57
2021/10/14 02:22:45;;;;;;;1.23;0.80;;;;;;;;;;5115774;27;20404;-58
2021/10/14 02:25:12;;;;;;;0.73;0.60;;;;;;;;;;5133900;27;20027;-58
2021/10/14 02:27:38;;;;;;;3.08;0.98;;;;;;;;;;5133707;27;20027;-58
2021/10/14 02:30:05;;;;;;;2.53;1.15;;;;;;;;;;5134162;27;20027;-57
2021/10/14 02:32:31;;;;;;;0.90;0.75;;;;;;;;;;5133262;27;20084;-57
2021/10/14 02:34:57;;;;;;;1.30;1.00;;;;;;;;;;5133670;27;20548;-58
2021/10/14 02:37:24;;;;;;;1.55;0.60;;;;;;;;;;5133291;27;20116;-58
2021/10/14 02:39:50;;;;;;;0.63;0.50;;;;;;;;;;5134131;27;20027;-57
2021/10/14 02:42:16;;;;;;;1.27;0.90;;;;;;;;;;5133276;27;20027;-57
2021/10/14 02:44:42;;;;;;;1.00;0.65;;;;;;;;;;5133786;27;20023;-57
2021/10/14 02:47:08;;;;;;;1.17;0.80;;;;;;;;;;5133563;27;20030;-58
2021/10/14 02:49:34;;;;;;;1.20;0.90;;;;;;;;;;5132700;27;20030;-58
2021/10/14 02:52:00;;;;;;;1.13;0.80;;;;;;;;;;5133650;27;20095;-58
2021/10/14 02:54:26;;;;;;;2.25;1.27;;;;;;;;;;5114068;27;20523;-57
2021/10/14 02:56:52;;;;;;;1.35;0.90;;;;;;;;;;5133556;27;20023;-58
2021/10/14 02:59:18;;;;;;;1.10;0.73;;;;;;;;;;5132674;27;20019;-57
2021/10/14 03:01:44;;;;;;;1.42;0.95;;;;;;;;;;5133368;27;20031;-58
2021/10/14 03:04:10;;;;;;;0.98;0.80;;;;;;;;;;5133426;27;20017;-58
2021/10/14 03:06:36;;;;;;;1.75;0.73;;;;;;;;;;5132326;27;20027;-58
2021/10/14 03:09:02;;;;;;;1.30;0.82;;;;;;;;;;5133474;27;20359;-58
2021/10/14 03:11:28;;;;;;;1.63;0.90;;;;;;;;;;5132623;27;20019;-58
2021/10/14 03:13:54;;;;;;;1.20;1.00;;;;;;;;;;5133368;27;20026;-58
2021/10/14 03:16:20;;;;;;;2.17;0.88;;;;;;;;;;5132556;27;20019;-58
2021/10/14 03:18:48;;;;;;;0.90;0.73;;;;;;;;;;5133508;27;20064;-58
2021/10/14 03:21:14;;;;;;;1.50;0.90;;;;;;;;;;5114110;27;20023;-57
2021/10/14 03:23:40;;;;;;;1.08;0.80;;;;;;;;;;5112510;28;20024;-57
2021/10/14 03:26:06;;;;;;;2.17;0.98;;;;;;;;;;5112563;28;20034;-58
2021/10/14 03:28:32;;;;;;;2.45;0.95;;;;;;;;;;5111476;28;20024;-58
2021/10/14 03:30:58;;;;;;;0.90;0.85;;;;;;;;;;5112350;28;20012;-58
2021/10/14 03:33:24;;;;;;;0.80;0.68;;;;;;;;;;5111615;28;20043;-57
2021/10/14 03:35:51;;;;;;;1.23;0.85;;;;;;;;;;5111981;28;20492;-57
2021/10/14 03:38:17;;;;;;;2.28;0.88;;;;;;;;;;5111909;28;20016;-57
2021/10/14 03:40:42;;;;;;;1.42;1.00;;;;;;;;;;5112304;28;20023;-58
2021/10/14 03:43:08;;;;;;;1.70;1.13;;;;;;;;;;5112085;28;20027;-57
2021/10/14 03:45:35;;;;;;;1.20;1.10;;;;;;;;;;5111527;28;20602;-57
2021/10/14 03:48:01;;;;;;;2.45;0.93;;;;;;;;;;5112252;28;20368;-58
2021/10/14 03:50:27;;;;;;;1.33;1.08;;;;;;;;;;5111265;28;20475;-58
2021/10/14 03:52:53;;;;;;;1.95;0.80;;;;;;;;;;5112150;28;20023;-58
2021/10/14 03:55:19;;;;;;;2.65;1.40;;;;;;;;;;5111600;28;20024;-57
2021/10/14 03:57:45;;;;;;;2.67;1.27;;;;;;;;;;5112137;28;20375;-57
2021/10/14 04:00:11;;;;;;;0.95;0.77;;;;;;;;;;5112446;28;20019;-57
2021/10/14 04:02:37;;;;;;;1.20;0.90;;;;;;;;;;5111402;28;20012;-58
2021/10/14 04:05:04;;;;;;;1.35;0.95;;;;;;;;;;5112264;28;20122;-58
2021/10/14 04:07:30;;;;;;;1.23;0.95;;;;;;;;;;5111417;28;20055;-58
2021/10/14 04:09:56;;;;;;;1.90;1.00;;;;;;;;;;5112223;28;20051;-58
2021/10/14 04:12:22;;;;;;;1.50;1.00;;;;;;;;;;5111285;28;20019;-57
2021/10/14 04:14:48;;;;;;;1.30;1.00;;;;;;;;;;5112039;28;20035;-58
2021/10/14 04:17:14;;;;;;;1.85;0.90;;;;;;;;;;5112161;28;20399;-58
2021/10/14 04:19:41;;;;;;;0.90;0.80;;;;;;;;;;5116319;28;20086;-57
2021/10/14 04:22:07;;;;;;;1.35;0.82;;;;;;;;;;5132856;28;20458;-58
2021/10/14 04:24:33;;;;;;;1.13;0.85;;;;;;;;;;5131734;28;20092;-58
2021/10/14 04:26:59;;;;;;;1.88;0.95;;;;;;;;;;5132590;28;20024;-57
2021/10/14 04:29:25;;;;;;;0.95;0.65;;;;;;;;;;5131722;28;20071;-57
2021/10/14 04:31:52;;;;;;;1.35;0.93;;;;;;;;;;5132462;28;20071;-58
2021/10/14 04:34:18;;;;;;;1.45;0.95;;;;;;;;;;5131806;28;20024;-57
2021/10/14 04:36:44;;;;;;;1.52;1.10;;;;;;;;;;5131968;28;20038;-57
2021/10/14 04:39:10;;;;;;;2.28;1.27;;;;;;;;;;5132631;28;20017;-58
2021/10/14 04:41:37;;;;;;;1.33;1.00;;;;;;;;;;5131756;27;20659;-57
2021/10/14 04:44:03;;;;;;;1.88;1.25;;;;;;;;;;5135509;27;20463;-57
2021/10/14 04:46:29;;;;;;;1.15;0.85;;;;;;;;;;5135297;27;20349;-57
2021/10/14 04:48:55;;;;;;;1.65;1.17;;;;;;;;;;5136007;27;20023;-57
2021/10/14 04:51:22;;;;;;;2.60;1.38;;;;;;;;;;5134956;27;20027;-57
2021/10/14 04:53:48;;;;;;;2.00;1.05;;;;;;;;;;5135413;27;20045;-57
2021/10/14 04:56:14;;;;;;;1.45;1.27;;;;;;;;;;5135949;27;20096;-58
2021/10/14 04:58:40;;;;;;;1.48;1.00;;;;;;;;;;5135132;27;20501;-58
2021/10/14 05:01:06;;;;;;;1.10;0.70;;;;;;;;;;5135208;27;20460;-57
2021/10/14 05:03:32;;;;;;;2.75;1.20;;;;;;;;;;5134382;27;20101;-57
2021/10/14 05:05:58;;;;;;;1.75;1.00;;;;;;;;;;5134966;27;20023;-57
2021/10/14 05:08:24;;;;;;;2.25;1.42;;;;;;;;;;5134743;27;20068;-57
2021/10/14 05:10:50;;;;;;;3.92;1.27;;;;;;;;;;5135516;27;20015;-58
2021/10/14 05:13:16;;;;;;;2.50;1.20;;;;;;;;;;5135586;27;20050;-57
2021/10/14 05:15:42;;;;;;;3.05;1.00;;;;;;;;;;5134916;27;20022;-57
2021/10/14 05:18:08;;;;;;;1.60;1.17;;;;;;;;;;5135386;27;20075;-58
2021/10/14 05:20:34;;;;;;;1.73;0.90;;;;;;;;;;5121814;27;20095;-57
2021/10/14 05:23:01;;;;;;;2.13;0.77;;;;;;;;;;5114686;28;20022;-58
2021/10/14 05:25:27;;;;;;;3.35;1.02;;;;;;;;;;5113618;28;20016;-56
2021/10/14 05:27:53;;;;;;;2.65;1.10;;;;;;;;;;5114830;28;20128;-57
2021/10/14 05:30:19;;;;;;;2.40;1.35;;;;;;;;;;5113994;28;20525;-54
2021/10/14 05:32:45;;;;;;;3.22;1.10;;;;;;;;;;5114725;28;20024;-58
2021/10/14 05:35:12;;;;;;;4.63;1.45;;;;;;;;;;5114272;28;20055;-59
2021/10/14 05:37:38;;;;;;;2.75;1.00;;;;;;;;;;5113785;28;20199;-59
2021/10/14 05:40:04;;;;;;;6.18;1.65;;;;;;;;;;5114181;28;20058;-59
2021/10/14 05:42:30;;;;;;;8.60;1.50;;;;;;;;;;5113683;28;20020;-67
2021/10/14 05:44:57;;;;;;;9.00;2.10;;;;;;;;;;5095741;28;20067;-58
2021/10/14 05:47:23;;;;;;;16.15;2.10;;;;;;;;;;5113591;28;20042;-51
2021/10/14 05:49:49;;;;;;;3.33;1.30;;;;;;;;;;5114352;28;20020;-58
2021/10/14 05:52:15;;;;;;;5.22;1.60;;;;;;;;;;5114155;28;20494;-58
2021/10/14 05:54:41;;;;;;;5.28;1.80;;;;;;;;;;5113251;28;20015;-58
2021/10/14 05:57:07;;;;;;;9.65;1.55;;;;;;;;;;5113832;28;20027;-57
2021/10/14 05:59:33;;;;;;;6.22;1.30;;;;;;;;;;5112972;28;20464;-55
2021/10/14 06:01:59;;;;;;;7.95;1.80;;;;;;;;;;5113990;28;20116;-55
2021/10/14 06:04:25;;;;;;;4.90;2.15;;;;;;;;;;5113011;28;20038;-55
2021/10/14 06:06:51;;;;;;;12.30;2.03;;;;;;;;;;5113864;28;20020;-56
2021/10/14 06:09:17;;;;;;;5.15;1.33;;;;;;;;;;5113600;28;20106;-56
2021/10/14 06:11:43;;;;;;;6.55;1.35;;;;;;;;;;5113081;28;20529;-56
2021/10/14 06:14:09;;;;;;;5.60;2.33;;;;;;;;;;5122649;27;20039;-56
2021/10/14 06:16:35;;;;;;;3.10;1.38;;;;;;;;;;5129133;27;20084;-55
2021/10/14 06:19:01;;;;;;;7.72;1.92;;;;;;;;;;5134277;27;20022;-57
2021/10/14 06:21:27;;;;;;;9.38;2.03;;;;;;;;;;5118070;27;20046;-56
2021/10/14 06:23:53;;;;;;;8.13;2.15;;;;;;;;;;5132041;27;20019;-57
2021/10/14 06:26:19;;;;;;;6.30;1.70;;;;;;;;;;5133324;27;20031;-57
2021/10/14 06:28:45;;;;;;;4.43;1.40;;;;;;;;;;5128423;27;20054;-57
2021/10/14 06:31:12;;;;;;;3.38;1.48;;;;;;;;;;5113318;28;20043;-57
2021/10/14 06:33:38;;;;;;;5.75;2.53;;;;;;;;;;5112659;28;20062;-57
2021/10/14 06:36:04;;;;;;;6.82;1.63;;;;;;;;;;5113404;28;20044;-57
2021/10/14 06:38:30;;;;;;;9.25;1.73;;;;;;;;;;5112511;28;20444;-57
2021/10/14 06:40:56;;;;;;;8.77;2.05;;;;;;;;;;5094934;28;20356;-57
2021/10/14 06:43:22;;;;;;;1.88;1.05;;;;;;;;;;5112996;28;20197;-56
2021/10/14 06:45:50;;;;;;;2.95;1.38;;;;;;;;;;5112933;28;20019;-57
2021/10/14 06:48:16;;;;;;;3.03;1.25;;;;;;;;;;5113279;28;20098;-57
2021/10/14 06:50:42;;;;;;;3.65;1.30;;;;;;;;;;5111974;28;20094;-57
2021/10/14 06:53:11;;;;;;;6.20;2.20;;;;;;;;;;5113274;28;20030;-57
2021/10/14 06:55:37;;;;;;;3.97;1.20;;;;;;;;;;5112011;28;20024;-57
2021/10/14 06:58:03;;;;;;;3.95;1.42;;;;;;;;;;5113079;28;20355;-57
2021/10/14 07:00:29;;;;;;;3.88;1.40;;;;;;;;;;5111986;28;20020;-57
2021/10/14 07:02:55;;;;;;;4.28;1.70;;;;;;;;;;5113039;28;20099;-57
2021/10/14 07:05:21;;;;;;;4.07;1.48;;;;;;;;;;5112397;28;20118;-57
2021/10/14 07:07:47;;;;;;;2.50;1.20;;;;;;;;;;5112582;28;20042;-58
2021/10/14 07:10:15;;;;;;;3.55;1.20;;;;;;;;;;5112733;28;20020;-58
2021/10/14 07:12:41;;;;;;;1.73;1.15;;;;;;;;;;5112244;28;20031;-57
2021/10/14 07:15:08;;;;;;;5.55;1.30;;;;;;;;;;5112746;28;20057;-57
2021/10/14 07:17:34;;;;;;;2.65;1.50;;;;;;;;;;5111967;28;20046;-57
2021/10/14 07:20:00;;;;;;;2.75;1.63;;;;;;;;;;5094629;28;20019;-57
2021/10/14 07:22:26;;;;;;;4.05;1.55;;;;;;;;;;5111955;28;20020;-56
2021/10/14 07:24:52;;;;;;;3.00;1.40;;;;;;;;;;5112497;28;20023;-57
2021/10/14 07:27:18;;;;;;;3.75;1.17;;;;;;;;;;5112446;28;20027;-58
2021/10/14 07:29:44;;;;;;;3.28;1.55;;;;;;;;;;5111768;28;20015;-57
2021/10/14 07:32:10;;;;;;;2.30;1.30;;;;;;;;;;5112517;28;20371;-57
2021/10/14 07:34:36;;;;;;;2.63;1.45;;;;;;;;;;5111310;28;20428;-57
2021/10/14 07:37:03;;;;;;;2.25;1.45;;;;;;;;;;5112678;28;20038;-57
2021/10/14 07:39:29;;;;;;;3.42;1.40;;;;;;;;;;5111683;28;20011;-57
2021/10/14 07:41:55;;;;;;;2.80;1.38;;;;;;;;;;5112550;28;20592;-57
2021/10/14 07:44:21;;;;;;;2.85;1.20;;;;;;;;;;5112449;28;20105;-57
2021/10/14 07:46:47;;;;;;;2.72;1.30;;;;;;;;;;5111438;28;20028;-57
2021/10/14 07:49:15;;;;;;;3.15;1.55;;;;;;;;;;5112449;28;20027;-57
2021/10/14 07:51:41;;;;;;;4.05;1.10;;;;;;;;;;5111527;28;20020;-57
2021/10/14 07:54:07;;;;;;;2.95;1.30;;;;;;;;;;5112399;28;20069;-57
2021/10/14 07:56:33;;;;;;;3.92;1.42;;;;;;;;;;5111032;28;20030;-57
2021/10/14 07:58:59;;;;;;;3.03;1.30;;;;;;;;;;5112373;28;20023;-57
2021/10/14 08:01:25;;;;;;;3.30;1.45;;;;;;;;;;5111497;28;20015;-56
2021/10/14 08:03:51;;;;;;;2.28;1.20;;;;;;;;;;5112099;28;20026;-57
2021/10/14 08:06:17;;;;;;;2.33;1.33;;;;;;;;;;5112314;28;20027;-57
2021/10/14 08:08:43;;;;;;;4.15;1.75;;;;;;;;;;5111137;28;20547;-57
2021/10/14 08:11:10;;;;;;;1.58;1.10;;;;;;;;;;5111807;28;20024;-57
2021/10/14 08:13:36;;;;;;;2.28;1.40;;;;;;;;;;5111185;28;20024;-57
2021/10/14 08:16:03;;;;;;;3.80;1.52;;;;;;;;;;5112054;28;20055;-57
2021/10/14 08:18:30;;;;;;;1.65;1.23;;;;;;;;;;5113631;28;20459;-56
2021/10/14 08:20:57;;;;;;;2.00;0.93;;;;;;;;;;5131600;27;20019;-57
2021/10/14 08:23:23;;;;;;;2.50;1.33;;;;;;;;;;5136626;27;20034;-57
2021/10/14 08:25:49;;;;;;;1.55;1.02;;;;;;;;;;5136142;27;20104;-57
2021/10/14 08:28:16;;;;;;;2.67;1.33;;;;;;;;;;5136291;27;20019;-57
2021/10/14 08:30:42;;;;;;;1.50;1.27;;;;;;;;;;5135368;27;20019;-56
2021/10/14 08:33:09;;;;;;;2.67;1.33;;;;;;;;;;5136845;27;20105;-57
2021/10/14 08:35:38;;;;;;;2.65;1.23;;;;;;;;;;5135129;27;20051;-57
2021/10/14 08:38:07;;;;;;;2.30;1.20;;;;;;;;;;5136370;27;20351;-57
2021/10/14 08:40:33;;;;;;;1.92;1.20;;;;;;;;;;5135487;27;20068;-57
2021/10/14 08:43:01;;;;;;;2.00;0.95;;;;;;;;;;5136192;27;20020;-57
2021/10/14 08:45:28;;;;;;;2.17;1.15;;;;;;;;;;5135295;27;20474;-56
2021/10/14 08:47:54;;;;;;;1.10;0.90;;;;;;;;;;5135929;27;20341;-57
2021/10/14 08:50:21;;;;;;;1.58;0.93;;;;;;;;;;5136157;27;20015;-57
2021/10/14 08:52:47;;;;;;;3.10;1.13;;;;;;;;;;5135065;27;20440;-57
2021/10/14 08:55:13;;;;;;;1.38;1.17;;;;;;;;;;5136282;27;20106;-57
2021/10/14 08:57:39;;;;;;;1.50;1.13;;;;;;;;;;5134681;27;20090;-57
2021/10/14 09:00:06;;;;;;;1.35;0.98;;;;;;;;;;5135941;27;20103;-57
2021/10/14 09:02:33;;;;;;;1.30;0.93;;;;;;;;;;5134945;27;20011;-56
2021/10/14 09:05:03;;;;;;;1.70;1.30;;;;;;;;;;5135615;27;20054;-57
2021/10/14 09:07:31;;;;;;;2.17;1.13;;;;;;;;;;5134978;27;20062;-56
2021/10/14 09:10:03;;;;;;;2.88;1.10;;;;;;;;;;5135819;27;20161;-57
2021/10/14 09:12:36;;;;;;;1.83;1.33;;;;;;;;;;5134969;27;20098;-56
2021/10/14 09:15:09;;;;;;;1.50;1.00;;;;;;;;;;5135387;27;20463;-57
2021/10/14 09:17:38;;;;;;;1.42;0.98;;;;;;;;;;5134620;27;20015;-57
2021/10/14 09:20:23;;;;;;;1.48;1.10;;;;;;;;;;5126915;27;20015;-57
2021/10/14 09:22:59;;;;;;;3.05;1.23;;;;;;;;;;5114088;28;20767;-57
2021/10/14 09:25:30;;;;;;;1.35;1.00;;;;;;;;;;5114718;28;20020;-57
2021/10/14 09:28:12;;;;;;;2.22;0.93;;;;;;;;;;5114308;28;20035;-57
2021/10/14 09:30:45;;;;;;;2.47;1.40;;;;;;;;;;5114080;28;20022;-56
2021/10/14 09:33:27;;;;;;;3.95;1.42;;;;;;;;;;5096324;28;20453;-57
2021/10/14 09:35:53;;;;;;;3.22;1.20;;;;;;;;;;5114536;28;20083;-57
2021/10/14 09:38:32;;;;;;;1.55;1.13;;;;;;;;;;5114654;28;20059;-57
2021/10/14 09:41:02;;;;;;;2.58;1.35;;;;;;;;;;5114555;28;20061;-57
2021/10/14 09:43:28;;;;;;;2.63;1.20;;;;;;;;;;5095746;28;20069;-55
2021/10/14 09:45:54;;;;;;;2.53;1.17;;;;;;;;;;5114053;28;20023;-57
2021/10/14 09:48:20;;;;;;;2.97;0.95;;;;;;;;;;5114342;28;20095;-57
2021/10/14 09:50:46;;;;;;;2.15;0.90;;;;;;;;;;5113904;28;20027;-57
2021/10/14 09:53:14;;;;;;;1.75;0.93;;;;;;;;;;5113986;28;20114;-57
2021/10/14 09:55:40;;;;;;;2.58;1.10;;;;;;;;;;5113392;28;20388;-57
2021/10/14 09:58:07;;;;;;;1.83;0.90;;;;;;;;;;5114197;28;20019;-57
2021/10/14 10:00:33;;;;;;;1.80;1.00;;;;;;;;;;5112952;28;20519;-56
2021/10/14 10:03:04;;;;;;;2.55;1.10;;;;;;;;;;5114185;28;20102;-57
2021/10/14 10:05:30;;;;;;;3.40;1.45;;;;;;;;;;5113133;28;20111;-56
2021/10/14 10:07:58;;;;;;;2.38;1.00;;;;;;;;;;5113970;28;20028;-57
2021/10/14 10:10:25;;;;;;;2.28;1.10;;;;;;;;;;5114081;28;20093;-57
2021/10/14 10:12:52;;;;;;;1.40;0.80;;;;;;;;;;5113101;28;20028;-57
2021/10/14 10:15:37;;;;;;;2.42;1.05;;;;;;;;;;5113648;28;20028;-57
2021/10/14 10:18:03;;;;;;;2.00;1.02;;;;;;;;;;5113790;28;20031;-57
2021/10/14 10:20:39;;;;;;;1.42;0.80;;;;;;;;;;5125135;27;20024;-55
2021/10/14 10:23:05;;;;;;;1.98;1.15;;;;;;;;;;5134080;27;20022;-57
2021/10/14 10:25:31;;;;;;;1.60;1.00;;;;;;;;;;5133704;27;20023;-56
2021/10/14 10:27:58;;;;;;;2.22;0.95;;;;;;;;;;5134434;27;20022;-57
2021/10/14 10:30:32;;;;;;;1.80;1.00;;;;;;;;;;5133909;27;20019;-57
2021/10/14 10:32:59;;;;;;;2.38;1.13;;;;;;;;;;5133877;27;20024;-57
2021/10/14 10:35:45;;;;;;;2.05;0.90;;;;;;;;;;5133568;27;20441;-57
2021/10/14 10:38:23;;;;;;;2.40;1.13;;;;;;;;;;5134004;27;20022;-57
2021/10/14 10:40:50;;;;;;;2.95;1.30;;;;;;;;;;5132660;27;20647;-57
2021/10/14 10:43:16;;;;;;;5.72;2.13;;;;;;;;;;5133816;27;20416;-57
2021/10/14 10:45:43;;;;;;;1.30;0.85;;;;;;;;;;5132611;27;20099;-57
2021/10/14 10:48:09;;;;;;;0.85;0.70;;;;;;;;;;5133799;27;20084;-57
2021/10/14 10:50:41;;;;;;;1.63;1.45;;;;;;;;;;5132854;27;20023;-56
2021/10/14 10:53:07;;;;;;;;;;;;;;;;;;5133778;27;20463;-57
2021/10/14 10:55:33;;;;;;;2.35;0.90;;;;;;;;;;5132637;27;19907;-56
2021/10/14 10:58:01;;;;;;;1.58;1.08;;;;;;;;;;5133636;27;20026;-57
2021/10/14 11:00:27;;;;;;;3.17;1.33;;;;;;;;;;5133039;27;20519;-57
2021/10/14 11:03:08;;;;;;;2.38;1.17;;;;;;;;;;5132527;27;20020;-57
2021/10/14 11:05:39;;;;;;;1.10;0.75;;;;;;;;;;5132670;27;20527;-56
2021/10/14 11:08:06;;;;;;;2.22;0.93;;;;;;;;;;5133584;27;20050;-57
2021/10/14 11:10:32;;;;;;;1.00;0.60;;;;;;;;;;5133111;27;20347;-57
2021/10/14 11:12:58;;;;;;;1.30;0.95;;;;;;;;;;5132941;27;20094;-57
2021/10/14 11:15:26;;;;;;;1.60;0.70;;;;;;;;;;5133219;27;20041;-57
2021/10/14 11:18:03;;;;;;;1.88;0.80;;;;;;;;;;5132822;27;20026;-57
2021/10/14 11:20:29;;;;;;;1.17;0.98;;;;;;;;;;5121170;27;20043;-57
2021/10/14 11:23:03;;;;;;;1.27;0.70;;;;;;;;;;5112165;28;20099;-57
2021/10/14 11:25:29;;;;;;;0.80;0.80;;;;;;;;;;5112257;28;20047;-57
2021/10/14 11:28:00;;;;;;;1.00;0.75;;;;;;;;;;5112263;28;20047;-57
2021/10/14 11:30:34;;;;;;;2.33;1.02;;;;;;;;;;5112655;28;20026;-57
2021/10/14 11:33:09;;;;;;;1.55;0.90;;;;;;;;;;5112460;28;20107;-57
2021/10/14 11:35:35;;;;;;;1.48;1.00;;;;;;;;;;5111694;28;20051;-56
2021/10/14 11:38:07;;;;;;;1.38;0.90;;;;;;;;;;5112247;28;20031;-57
2021/10/14 11:40:34;;;;;;;3.40;0.95;;;;;;;;;;5111811;28;20027;-56
2021/10/14 11:43:01;;;;;;;2.42;0.82;;;;;;;;;;5112504;28;20019;-57
2021/10/14 11:45:27;;;;;;;1.30;0.90;;;;;;;;;;5094206;28;20405;-57
2021/10/14 11:47:53;;;;;;;2.75;1.40;;;;;;;;;;5111145;28;20618;-57
2021/10/14 11:50:23;;;;;;;0.95;0.80;;;;;;;;;;5112509;28;20027;-57
2021/10/14 11:52:59;;;;;;;2.25;0.90;;;;;;;;;;5115234;28;20024;-57
2021/10/14 11:55:25;;;;;;;1.75;0.80;;;;;;;;;;5116322;28;20027;-57
2021/10/14 11:57:51;;;;;;;1.23;0.90;;;;;;;;;;5116023;28;20028;-57
2021/10/14 12:00:17;;;;;;;1.85;1.20;;;;;;;;;;5116699;28;20024;-57
2021/10/14 12:02:43;;;;;;;1.30;1.20;;;;;;;;;;5115523;28;20026;-57
2021/10/14 12:05:09;;;;;;;0.82;0.70;;;;;;;;;;5116189;28;20057;-57
2021/10/14 12:07:35;;;;;;;1.17;0.70;;;;;;;;;;5115606;28;20027;-56
2021/10/14 12:10:02;;;;;;;2.22;0.93;;;;;;;;;;5116113;28;20047;-57
2021/10/14 12:12:29;;;;;;;1.38;0.80;;;;;;;;;;5116304;28;20051;-57
2021/10/14 12:14:59;;;;;;;1.85;0.90;;;;;;;;;;5115417;28;20080;-57
2021/10/14 12:17:36;;;;;;;1.73;0.80;;;;;;;;;;5116088;28;20054;-57
2021/10/14 12:20:09;;;;;;;1.13;0.80;;;;;;;;;;5124288;27;20390;-57
2021/10/14 12:22:39;;;;;;;1.30;0.77;;;;;;;;;;5135824;27;20072;-55
2021/10/14 12:25:06;;;;;;;1.45;0.77;;;;;;;;;;5136548;27;20337;-57
2021/10/14 12:27:45;;;;;;;1.25;1.00;;;;;;;;;;5136791;27;20360;-57
2021/10/14 12:30:17;;;;;;;1.25;0.80;;;;;;;;;;5136395;27;20015;-57
2021/10/14 12:32:43;;;;;;;2.33;0.75;;;;;;;;;;5135803;27;20015;-57
2021/10/14 12:35:09;;;;;;;1.17;0.75;;;;;;;;;;5136169;27;20119;-57
2021/10/14 12:37:35;;;;;;;1.20;0.68;;;;;;;;;;5135857;27;20064;-56
2021/10/14 12:40:17;;;;;;;1.80;0.95;;;;;;;;;;5136231;27;20363;-57
2021/10/14 12:42:51;;;;;;;1.20;0.75;;;;;;;;;;5135402;27;20011;-57
2021/10/14 12:45:36;;;;;;;0.88;0.60;;;;;;;;;;5136196;27;20038;-57
2021/10/14 12:48:19;;;;;;;0.95;0.80;;;;;;;;;;5136083;27;20019;-57
2021/10/14 12:50:56;;;;;;;1.50;0.80;;;;;;;;;;5135081;27;20019;-57
2021/10/14 12:53:22;;;;;;;1.73;1.00;;;;;;;;;;5136160;27;20019;-57
2021/10/14 12:55:58;;;;;;;1.00;0.77;;;;;;;;;;5134881;27;20332;-57
2021/10/14 12:58:24;;;;;;;0.73;0.60;;;;;;;;;;5135773;27;20023;-57
2021/10/14 13:01:04;;;;;;;2.25;0.70;;;;;;;;;;5135071;27;20064;-57
2021/10/14 13:03:30;;;;;;;1.58;0.80;;;;;;;;;;5134957;27;20015;-57
2021/10/14 13:05:57;;;;;;;2.25;1.55;;;;;;;;;;5134973;27;20664;-57
2021/10/14 13:08:23;;;;;;;1.17;0.65;;;;;;;;;;5135726;27;20027;-57
2021/10/14 13:10:49;;;;;;;1.13;0.93;;;;;;;;;;5116390;27;20038;-57
2021/10/14 13:13:15;;;;;;;1.33;0.98;;;;;;;;;;5135810;27;20022;-57
2021/10/14 13:15:41;;;;;;;1.27;0.60;;;;;;;;;;5134744;27;20027;-56
2021/10/14 13:18:08;;;;;;;0.65;0.63;;;;;;;;;;5135263;27;20098;-57
2021/10/14 13:20:34;;;;;;;1.23;0.90;;;;;;;;;;5122836;27;20019;-57
2021/10/14 13:23:03;;;;;;;1.90;0.82;;;;;;;;;;5114305;28;20055;-57
2021/10/14 13:25:29;;;;;;;1.60;0.60;;;;;;;;;;5114794;28;20019;-57
2021/10/14 13:27:56;;;;;;;2.40;0.75;;;;;;;;;;5114042;28;20023;-57
2021/10/14 13:30:22;;;;;;;0.93;0.80;;;;;;;;;;5114661;28;20023;-57
2021/10/14 13:32:48;;;;;;;1.05;0.95;;;;;;;;;;5113891;28;20042;-57
2021/10/14 13:35:15;;;;;;;0.82;0.68;;;;;;;;;;5114238;28;20477;-57
2021/10/14 13:37:43;;;;;;;1.23;0.80;;;;;;;;;;5113904;28;20015;-56
2021/10/14 13:40:10;;;;;;;1.02;0.80;;;;;;;;;;5114499;28;20110;-57
2021/10/14 13:42:39;;;;;;;1.25;0.93;;;;;;;;;;5114062;28;20478;-56
2021/10/14 13:45:06;;;;;;;2.30;0.98;;;;;;;;;;5114458;28;20034;-57
2021/10/14 13:47:32;;;;;;;1.33;0.70;;;;;;;;;;5114558;28;20353;-57
2021/10/14 13:49:58;;;;;;;0.70;0.65;;;;;;;;;;5113466;28;20103;-57
2021/10/14 13:52:24;;;;;;;1.40;0.75;;;;;;;;;;5114196;28;20064;-57
2021/10/14 13:54:50;;;;;;;0.63;0.60;;;;;;;;;;5113477;28;20426;-57
2021/10/14 13:57:16;;;;;;;1.05;0.85;;;;;;;;;;5113908;28;20015;-57
2021/10/14 13:59:42;;;;;;;1.60;0.68;;;;;;;;;;5113312;28;20030;-57
2021/10/14 14:02:08;;;;;;;1.52;0.68;;;;;;;;;;5113328;28;20015;-57
2021/10/14 14:04:34;;;;;;;1.95;0.77;;;;;;;;;;5113896;28;20043;-57
2021/10/14 14:07:00;;;;;;;0.70;0.70;;;;;;;;;;5113133;28;20035;-57
2021/10/14 14:09:27;;;;;;;1.10;0.90;;;;;;;;;;5113798;28;20054;-57
2021/10/14 14:11:54;;;;;;;1.13;0.82;;;;;;;;;;5113083;28;20056;-57
2021/10/14 14:14:20;;;;;;;1.27;0.68;;;;;;;;;;5113577;28;20016;-57
2021/10/14 14:16:46;;;;;;;1.20;0.68;;;;;;;;;;5112074;28;20054;-57
2021/10/14 14:19:12;;;;;;;0.82;0.60;;;;;;;;;;5114548;27;20448;-57
2021/10/14 14:21:40;;;;;;;2.30;0.65;;;;;;;;;;5134085;27;20019;-56
2021/10/14 14:24:06;;;;;;;1.65;1.05;;;;;;;;;;5134108;27;20557;-57
2021/10/14 14:26:32;;;;;;;1.13;0.63;;;;;;;;;;5134058;27;20063;-57
2021/10/14 14:28:59;;;;;;;1.08;0.75;;;;;;;;;;5133390;27;20112;-57
2021/10/14 14:31:28;;;;;;;0.90;0.65;;;;;;;;;;5134157;27;20030;-57
2021/10/14 14:33:54;;;;;;;1.40;0.60;;;;;;;;;;5133379;27;20012;-57
2021/10/14 14:36:20;;;;;;;0.60;0.50;;;;;;;;;;5133823;27;20165;-57
2021/10/14 14:38:47;;;;;;;1.42;0.80;;;;;;;;;;5133146;27;20015;-57
2021/10/14 14:41:13;;;;;;;1.83;0.98;;;;;;;;;;5134009;27;20363;-57
2021/10/14 14:43:40;;;;;;;1.40;0.80;;;;;;;;;;5133576;27;20019;-56